Canyon, MN (55717)

4:39 AM CST on December 07, 2016 (GMT -0600)
Caribou Lake | | Change Station

Elev 1391 ft 46.90 °N, 92.30 °W | Updated 11 seconds ago

Light Snow
Light Snow Blowing Snow
16.2 °F
Feels Like 0 °F
N
19.0
Wind Variable Wind from WSW

Today
High -- | Low -- °F
--% Chance of Precip.
Yesterday
High -- | Low -- °F
Precip. -- in
Pressure 29.70 in
Visibility 9.0 miles
Clouds Overcast 2500 ft
Windchill 0 °F
Dew Point 13 °F
Humidity 86%
Rainfall 0.00 in
Snow Depth Not available.
7:42 AM 4:20 PM
Waxing Crescent, 51% visible
METAR KDLH 070955Z 26019G27KT 9SM -SN BLSN OVC025 M08/M11 A2962 RMK AO2 PK WND 26031/0859 SLP057 P0000 T10831111
Pressure 29.70 in
Visibility 9.0 miles
Clouds Overcast 2500 ft
Windchill 0 °F
Dew Point 13 °F
Humidity 86%
Rainfall 0.00 in
Snow Depth Not available.
7:42 AM 4:20 PM
Waxing Crescent, 51% visible
METAR KDLH 070955Z 26019G27KT 9SM -SN BLSN OVC025 M08/M11 A2962 RMK AO2 PK WND 26031/0859 SLP057 P0000 T10831111

10-Day Weather Forecast

Almanac

Astronomy

Dec. 07, 2016 Rise Set
Actual Time
Civil Twilight
Nautical Twilight
Astronomical Twilight
Moon
Length of Visible Light
Length of Day
Tomorrow will be .
, % of the Moon is Illuminated

Today's Extremes

State Highs State Lows

Community

WunderPhotos

Upload Photos

1,956,111 photos uploaded!

WunderBlog® & News

Nearby

Air Quality

  Air Quality AQ Index Pollutant
Not available.

Snow Depth

Station Depth Elevation

Earthquake Activity

City Distance Mag. Time & Date
Minimum magnitude displayed is 2.5.

Coastal Water Temperatures

Place Temperature

Stations

Nearby Weather Stations

Station Location Temp. Windchill Dew Point Humidity Wind Precip. Elev Updated Type
                   

Watches & Warnings

There are currently no watches in effect.